Time;durP1;ratioP1;P1;durP2;ratioP2;P2;SDS_P1;SDS_P2;PMS_P1;PMS_P2;Temp;Humidity;BMP_temperature;BMP_pressure;BME280_temperature;BME280_humidity;BME280_pressure;Samples;Min_cycle;Max_cycle;Signal;HPM_P1;HPM_P2
2023/01/23 00:01:15;;;;;;;23.90;13.83;;;;;;;;;;5070466;28;20198;-47
2023/01/23 00:03:42;;;;;;;26.15;13.93;;;;;;;;;;5071164;28;20443;-47
2023/01/23 00:06:10;;;;;;;22.60;15.07;;;;;;;;;;5078165;28;20169;-45
2023/01/23 00:08:36;;;;;;;26.27;15.02;;;;;;;;;;5070163;28;20205;-45
2023/01/23 00:11:06;;;;;;;23.23;13.70;;;;;;;;;;5071363;28;20202;-45
2023/01/23 00:13:32;;;;;;;26.92;14.00;;;;;;;;;;5074501;28;20408;-45
2023/01/23 00:15:58;;;;;;;26.17;15.90;;;;;;;;;;5075968;28;20239;-45
2023/01/23 00:18:24;;;;;;;24.37;14.07;;;;;;;;;;5074698;28;20193;-45
2023/01/23 00:20:50;;;;;;;23.50;14.10;;;;;;;;;;5074404;28;20452;-45
2023/01/23 00:23:16;;;;;;;21.90;13.55;;;;;;;;;;5078835;28;20466;-45
2023/01/23 00:25:42;;;;;;;24.88;13.77;;;;;;;;;;5071154;28;20177;-45
2023/01/23 00:28:08;;;;;;;23.60;14.33;;;;;;;;;;5074248;28;20231;-45
2023/01/23 00:30:35;;;;;;;24.70;14.60;;;;;;;;;;5074430;28;20428;-45
2023/01/23 00:33:01;;;;;;;24.98;14.50;;;;;;;;;;5071085;28;20420;-45
2023/01/23 00:35:27;;;;;;;26.03;12.50;;;;;;;;;;5071081;28;20176;-45
2023/01/23 00:37:52;;;;;;;23.20;13.50;;;;;;;;;;5071152;28;20448;-45
2023/01/23 00:40:18;;;;;;;28.73;14.90;;;;;;;;;;5070788;28;20428;-45
2023/01/23 00:42:44;;;;;;;25.15;13.77;;;;;;;;;;5071030;28;20574;-45
2023/01/23 00:45:11;;;;;;;24.87;14.47;;;;;;;;;;5077998;28;20206;-45
2023/01/23 00:47:37;;;;;;;22.45;13.18;;;;;;;;;;5081192;28;20458;-45
2023/01/23 00:50:03;;;;;;;29.17;15.27;;;;;;;;;;5082756;28;20205;-45
2023/01/23 00:52:29;;;;;;;27.00;15.43;;;;;;;;;;5074765;28;20776;-45
2023/01/23 00:54:55;;;;;;;21.25;13.50;;;;;;;;;;5077605;28;20265;-45
2023/01/23 00:57:21;;;;;;;20.60;12.90;;;;;;;;;;5076152;28;20264;-45
2023/01/23 00:59:47;;;;;;;23.50;14.23;;;;;;;;;;5077255;28;20421;-45
2023/01/23 01:02:13;;;;;;;23.50;14.10;;;;;;;;;;5080758;28;20466;-45
2023/01/23 01:04:39;;;;;;;21.50;13.00;;;;;;;;;;5082549;28;20412;-45
2023/01/23 01:07:05;;;;;;;22.43;13.63;;;;;;;;;;5074442;28;20419;-45
2023/01/23 01:09:31;;;;;;;23.03;13.00;;;;;;;;;;5074247;28;20469;-45
2023/01/23 01:11:57;;;;;;;22.27;11.90;;;;;;;;;;5078537;28;20453;-45
2023/01/23 01:14:24;;;;;;;21.67;14.38;;;;;;;;;;5074318;28;20404;-45
2023/01/23 01:16:50;;;;;;;19.90;11.38;;;;;;;;;;5074277;28;20166;-45
2023/01/23 01:19:18;;;;;;;17.50;11.63;;;;;;;;;;5080191;28;20204;-45
2023/01/23 01:21:44;;;;;;;21.77;13.07;;;;;;;;;;5075225;28;20462;-45
2023/01/23 01:24:10;;;;;;;23.10;13.15;;;;;;;;;;5076599;28;20178;-45
2023/01/23 01:26:36;;;;;;;23.47;13.60;;;;;;;;;;5078470;28;20224;-45
2023/01/23 01:29:02;;;;;;;24.07;13.03;;;;;;;;;;5079421;28;20426;-45
2023/01/23 01:31:34;;;;;;;23.85;13.45;;;;;;;;;;5079139;28;20415;-45
2023/01/23 01:34:00;;;;;;;24.88;13.32;;;;;;;;;;5082358;28;20246;-45
2023/01/23 01:36:26;;;;;;;22.65;13.30;;;;;;;;;;5074140;28;20171;-45
2023/01/23 01:38:52;;;;;;;22.40;13.27;;;;;;;;;;5075860;28;20277;-45
2023/01/23 01:41:18;;;;;;;21.60;14.23;;;;;;;;;;5073902;28;20474;-45
2023/01/23 01:43:44;;;;;;;21.87;12.80;;;;;;;;;;5079311;28;20837;-45
2023/01/23 01:46:16;;;;;;;22.95;12.98;;;;;;;;;;5073846;28;20408;-45
2023/01/23 01:49:01;;;;;;;22.30;13.13;;;;;;;;;;5073816;28;20175;-45
2023/01/23 01:51:29;;;;;;;19.67;13.23;;;;;;;;;;5070136;28;20170;-45
2023/01/23 01:53:58;;;;;;;21.45;12.27;;;;;;;;;;5079017;28;20650;-45
2023/01/23 01:56:25;;;;;;;20.67;12.07;;;;;;;;;;5079778;28;20174;-45
2023/01/23 01:58:53;;;;;;;25.23;13.30;;;;;;;;;;5073345;28;20466;-45
2023/01/23 02:01:19;;;;;;;21.25;14.02;;;;;;;;;;5066655;28;20193;-45
2023/01/23 02:03:46;;;;;;;21.52;12.40;;;;;;;;;;5073541;28;20579;-45
2023/01/23 02:06:12;;;;;;;23.70;11.25;;;;;;;;;;5075559;28;20653;-46
2023/01/23 02:09:16;;;;;;;17.13;10.48;;;;;;;;;;5042069;28;20214;-45
2023/01/23 02:11:43;;;;;;;22.38;12.15;;;;;;;;;;5073374;28;20213;-45
2023/01/23 02:14:09;;;;;;;17.65;12.13;;;;;;;;;;5073136;28;20225;-45
2023/01/23 02:16:39;;;;;;;19.45;11.95;;;;;;;;;;5073224;28;20576;-45
2023/01/23 02:19:12;;;;;;;21.80;12.68;;;;;;;;;;5075185;28;20190;-45
2023/01/23 02:21:38;;;;;;;22.48;12.23;;;;;;;;;;5073104;28;20201;-45
2023/01/23 02:24:05;;;;;;;20.33;13.70;;;;;;;;;;5073086;28;20178;-45
2023/01/23 02:26:35;;;;;;;23.63;12.30;;;;;;;;;;5067741;28;20249;-45
2023/01/23 02:29:01;;;;;;;20.92;11.68;;;;;;;;;;5079779;28;20183;-45
2023/01/23 02:31:27;;;;;;;20.85;11.98;;;;;;;;;;5073008;28;20677;-45
2023/01/23 02:33:55;;;;;;;23.98;12.27;;;;;;;;;;5074929;28;20170;-45
2023/01/23 02:36:23;;;;;;;21.88;12.13;;;;;;;;;;5072773;28;20178;-45
2023/01/23 02:39:06;;;;;;;18.98;12.43;;;;;;;;;;5078517;28;20190;-45
2023/01/23 02:41:34;;;;;;;23.45;12.75;;;;;;;;;;5077805;28;20212;-44
2023/01/23 02:44:02;;;;;;;20.80;12.10;;;;;;;;;;5072347;28;20172;-45
2023/01/23 02:46:28;;;;;;;21.60;12.77;;;;;;;;;;5072639;28;20162;-45
2023/01/23 02:48:54;;;;;;;22.48;13.52;;;;;;;;;;5074226;28;20194;-45
2023/01/23 02:51:21;;;;;;;21.63;13.23;;;;;;;;;;5076158;28;20238;-45
2023/01/23 02:53:47;;;;;;;22.83;12.57;;;;;;;;;;5077591;28;20205;-45
2023/01/23 02:56:13;;;;;;;22.95;13.25;;;;;;;;;;5079431;28;20182;-45
2023/01/23 03:01:24;;;;;;;18.67;11.55;;;;;;;;;;5067914;28;20213;-45
2023/01/23 03:03:52;;;;;;;22.27;12.82;;;;;;;;;;5075146;28;20170;-45
2023/01/23 03:06:19;;;;;;;25.38;12.82;;;;;;;;;;5072883;28;20159;-45
2023/01/23 03:08:48;;;;;;;22.63;12.95;;;;;;;;;;5074092;28;20163;-45
2023/01/23 03:11:16;;;;;;;23.33;12.80;;;;;;;;;;5078374;28;20178;-46
2023/01/23 03:13:42;;;;;;;27.40;15.48;;;;;;;;;;5071283;28;20174;-45
2023/01/23 03:16:08;;;;;;;25.17;12.95;;;;;;;;;;5072315;28;20182;-45
2023/01/23 03:18:35;;;;;;;29.83;13.20;;;;;;;;;;5074325;28;20186;-45
2023/01/23 03:21:04;;;;;;;24.98;14.60;;;;;;;;;;5076255;28;20184;-45
2023/01/23 03:23:30;;;;;;;20.00;12.43;;;;;;;;;;5076206;28;20181;-45
2023/01/23 03:25:59;;;;;;;26.08;12.98;;;;;;;;;;5072782;28;20630;-45
2023/01/23 03:31:11;;;;;;;24.75;15.00;;;;;;;;;;5071615;28;20189;-45
2023/01/23 03:33:38;;;;;;;20.55;12.25;;;;;;;;;;5074632;28;20216;-45
2023/01/23 03:36:04;;;;;;;28.58;14.57;;;;;;;;;;5076117;28;20546;-45
2023/01/23 03:38:30;;;;;;;25.05;13.65;;;;;;;;;;5071191;28;20192;-45
2023/01/23 03:41:29;;;;;;;24.10;13.30;;;;;;;;;;5074096;28;20256;-45
2023/01/23 03:43:49;;;;;;;27.50;13.68;;;;;;;;;;5069442;28;20428;-45
2023/01/23 03:46:15;;;;;;;24.90;12.87;;;;;;;;;;5070791;28;20168;-45
2023/01/23 03:48:40;;;;;;;27.47;14.47;;;;;;;;;;5075266;28;20958;-45
2023/01/23 03:51:06;;;;;;;26.80;14.00;;;;;;;;;;5072626;28;20965;-45
2023/01/23 03:53:33;;;;;;;24.53;13.90;;;;;;;;;;5076025;28;20415;-45
2023/01/23 03:55:59;;;;;;;62.90;38.20;;;;;;;;;;5071785;28;20414;-45
2023/01/23 03:58:25;;;;;;;28.70;15.55;;;;;;;;;;5070516;28;20177;-45
2023/01/23 04:00:51;;;;;;;27.83;14.73;;;;;;;;;;5037096;28;1047141;-45
2023/01/23 04:03:17;;;;;;;28.40;15.70;;;;;;;;;;5076591;28;20634;-45
2023/01/23 04:05:43;;;;;;;26.10;14.77;;;;;;;;;;5077991;28;20400;-45
2023/01/23 04:08:09;;;;;;;24.90;13.63;;;;;;;;;;5063315;28;20448;-45
2023/01/23 04:10:35;;;;;;;26.83;12.63;;;;;;;;;;5071722;28;20416;-45
2023/01/23 04:13:01;;;;;;;18.23;12.20;;;;;;;;;;5072420;28;20239;-45
2023/01/23 04:15:27;;;;;;;29.10;13.77;;;;;;;;;;5074819;28;20400;-45
2023/01/23 04:17:53;;;;;;;23.73;13.47;;;;;;;;;;5076251;28;20261;-45
2023/01/23 04:20:19;;;;;;;26.47;13.60;;;;;;;;;;5080393;28;20439;-45
2023/01/23 04:22:45;;;;;;;26.33;12.85;;;;;;;;;;5083655;28;20489;-45
2023/01/23 04:25:11;;;;;;;26.83;14.18;;;;;;;;;;5075371;28;20238;-45
2023/01/23 04:27:37;;;;;;;26.10;13.30;;;;;;;;;;5077967;28;20611;-45
2023/01/23 04:30:03;;;;;;;24.00;13.97;;;;;;;;;;5076002;28;20796;-45
2023/01/23 04:32:29;;;;;;;24.92;13.85;;;;;;;;;;5083435;28;20502;-45
2023/01/23 04:34:55;;;;;;;20.33;12.50;;;;;;;;;;5076959;28;20257;-45
2023/01/23 04:37:21;;;;;;;23.20;13.83;;;;;;;;;;5083411;28;20408;-45
2023/01/23 04:39:46;;;;;;;23.47;15.07;;;;;;;;;;5073528;28;20438;-45
2023/01/23 04:42:12;;;;;;;26.80;13.80;;;;;;;;;;5078153;28;20518;-45
2023/01/23 04:44:38;;;;;;;30.07;16.50;;;;;;;;;;5079168;28;20502;-45
2023/01/23 04:47:04;;;;;;;22.57;12.33;;;;;;;;;;5076434;28;20461;-45
2023/01/23 04:49:30;;;;;;;23.07;12.93;;;;;;;;;;5080110;28;20508;-45
2023/01/23 04:51:56;;;;;;;21.97;12.87;;;;;;;;;;5074787;28;20450;-45
2023/01/23 04:54:22;;;;;;;28.50;14.37;;;;;;;;;;5074845;28;20409;-45
2023/01/23 04:56:48;;;;;;;25.53;13.83;;;;;;;;;;5078064;28;20408;-45
2023/01/23 04:59:15;;;;;;;24.03;13.67;;;;;;;;;;5079373;28;20515;-45
2023/01/23 05:01:41;;;;;;;21.48;14.00;;;;;;;;;;5080716;28;20455;-45
2023/01/23 05:04:07;;;;;;;26.33;15.20;;;;;;;;;;5077852;28;20558;-45
2023/01/23 05:06:33;;;;;;;21.30;13.20;;;;;;;;;;5079536;28;20771;-45
2023/01/23 05:08:59;;;;;;;21.73;13.02;;;;;;;;;;5074204;28;20197;-45
2023/01/23 05:11:25;;;;;;;24.67;13.00;;;;;;;;;;5077829;28;20174;-45
2023/01/23 05:13:51;;;;;;;23.45;13.18;;;;;;;;;;5079318;28;20417;-45
2023/01/23 05:16:17;;;;;;;28.35;14.35;;;;;;;;;;5080854;28;20177;-45
2023/01/23 05:18:43;;;;;;;22.80;13.00;;;;;;;;;;5082113;28;20182;-45
2023/01/23 05:21:09;;;;;;;23.20;12.87;;;;;;;;;;5075700;28;20563;-45
2023/01/23 05:23:36;;;;;;;20.03;13.43;;;;;;;;;;5076186;28;20965;-45
2023/01/23 05:26:01;;;;;;;26.13;13.48;;;;;;;;;;5075171;28;20813;-45
2023/01/23 05:28:27;;;;;;;21.27;12.17;;;;;;;;;;5078836;28;20211;-45
2023/01/23 05:30:53;;;;;;;24.60;13.60;;;;;;;;;;5080061;28;20424;-45
2023/01/23 05:33:19;;;;;;;27.20;12.03;;;;;;;;;;5082226;28;20484;-45
2023/01/23 05:35:45;;;;;;;20.03;12.57;;;;;;;;;;5073871;28;20396;-45
2023/01/23 05:38:12;;;;;;;22.53;13.03;;;;;;;;;;5076752;28;20775;-45
2023/01/23 05:40:38;;;;;;;19.88;12.68;;;;;;;;;;5077792;28;20572;-45
2023/01/23 05:43:05;;;;;;;24.60;12.97;;;;;;;;;;5075342;28;20289;-45
2023/01/23 05:45:31;;;;;;;24.38;13.35;;;;;;;;;;5079171;28;20439;-45
2023/01/23 05:47:57;;;;;;;20.50;12.50;;;;;;;;;;5081758;28;20227;-45
2023/01/23 05:50:24;;;;;;;27.80;15.00;;;;;;;;;;5073607;28;20519;-45
2023/01/23 05:52:50;;;;;;;21.83;12.70;;;;;;;;;;5076569;28;20405;-45
2023/01/23 05:55:16;;;;;;;19.17;12.50;;;;;;;;;;5078286;28;20205;-45
2023/01/23 05:57:42;;;;;;;24.37;12.47;;;;;;;;;;5073746;28;20428;-45
2023/01/23 06:00:10;;;;;;;17.95;10.05;;;;;;;;;;5076179;28;20443;-45
2023/01/23 06:02:36;;;;;;;20.15;11.40;;;;;;;;;;5077879;28;20563;-45
2023/01/23 06:05:02;;;;;;;20.67;12.27;;;;;;;;;;5073497;28;20167;-45
2023/01/23 06:07:28;;;;;;;19.77;11.47;;;;;;;;;;5076814;28;20428;-45
2023/01/23 06:09:54;;;;;;;20.63;12.23;;;;;;;;;;5077771;28;20480;-45
2023/01/23 06:12:20;;;;;;;19.57;10.13;;;;;;;;;;5079855;28;20214;-45
2023/01/23 06:14:46;;;;;;;21.90;12.40;;;;;;;;;;5081161;28;20416;-45
2023/01/23 06:17:12;;;;;;;19.38;11.02;;;;;;;;;;5073140;28;20923;-45
2023/01/23 06:19:38;;;;;;;25.30;12.30;;;;;;;;;;5075136;28;20251;-45
2023/01/23 06:22:04;;;;;;;18.73;11.73;;;;;;;;;;5073639;28;20460;-44
2023/01/23 06:24:30;;;;;;;26.50;13.00;;;;;;;;;;5077975;28;20396;-45
2023/01/23 06:26:56;;;;;;;20.97;12.77;;;;;;;;;;5078894;28;20905;-45
2023/01/23 06:29:22;;;;;;;25.23;12.63;;;;;;;;;;5079769;28;20832;-44
2023/01/23 06:31:48;;;;;;;24.25;13.13;;;;;;;;;;5071156;28;20547;-45
2023/01/23 06:34:15;;;;;;;21.93;13.13;;;;;;;;;;5072224;28;20197;-45
2023/01/23 06:36:41;;;;;;;24.02;13.80;;;;;;;;;;5074010;28;20416;-46
2023/01/23 06:39:07;;;;;;;21.55;13.00;;;;;;;;;;5072809;28;20248;-45
2023/01/23 06:41:33;;;;;;;23.85;12.95;;;;;;;;;;5076305;28;20303;-45
2023/01/23 06:43:59;;;;;;;21.35;12.35;;;;;;;;;;5079673;28;20170;-47
2023/01/23 06:46:25;;;;;;;21.73;13.03;;;;;;;;;;5071889;28;20574;-47
2023/01/23 06:48:52;;;;;;;27.13;13.27;;;;;;;;;;5072955;28;20438;-43
2023/01/23 06:51:18;;;;;;;25.42;12.77;;;;;;;;;;5072060;28;20416;-47
2023/01/23 06:53:44;;;;;;;25.60;13.67;;;;;;;;;;5078604;28;20629;-46
2023/01/23 06:56:11;;;;;;;23.50;13.30;;;;;;;;;;5072419;28;20491;-47
2023/01/23 06:58:37;;;;;;;32.55;17.38;;;;;;;;;;5072394;28;20937;-48
2023/01/23 07:01:10;;;;;;;27.50;16.47;;;;;;;;;;5072030;28;20179;-47
2023/01/23 07:03:36;;;;;;;29.92;15.88;;;;;;;;;;5075059;28;20400;-47
2023/01/23 07:06:06;;;;;;;37.47;18.97;;;;;;;;;;5072129;28;20192;-48
2023/01/23 07:08:34;;;;;;;25.65;15.48;;;;;;;;;;5078138;28;20451;-47
2023/01/23 07:11:01;;;;;;;23.00;13.27;;;;;;;;;;5079997;28;20550;-47
2023/01/23 07:13:27;;;;;;;27.13;16.17;;;;;;;;;;5072133;28;20170;-48
2023/01/23 07:15:53;;;;;;;28.30;14.40;;;;;;;;;;5074652;28;20197;-46
2023/01/23 07:18:19;;;;;;;31.47;15.93;;;;;;;;;;5072649;28;20196;-47
2023/01/23 07:20:45;;;;;;;25.70;14.60;;;;;;;;;;5075256;28;20440;-46
2023/01/23 07:23:11;;;;;;;28.45;14.60;;;;;;;;;;5078000;28;20740;-47
2023/01/23 07:25:37;;;;;;;31.07;16.60;;;;;;;;;;5079593;28;20220;-47
2023/01/23 07:28:04;;;;;;;26.73;12.30;;;;;;;;;;5071731;28;20459;-47
2023/01/23 07:30:30;;;;;;;29.08;15.15;;;;;;;;;;5074440;28;20185;-47
2023/01/23 07:32:57;;;;;;;28.55;15.25;;;;;;;;;;5075974;28;20215;-48
2023/01/23 07:35:23;;;;;;;26.17;13.73;;;;;;;;;;5074846;28;20181;-47
2023/01/23 07:37:49;;;;;;;24.98;13.15;;;;;;;;;;5074444;28;20180;-45
2023/01/23 07:40:15;;;;;;;27.13;13.33;;;;;;;;;;5079069;28;20194;-46
2023/01/23 07:42:41;;;;;;;25.00;11.90;;;;;;;;;;5071548;28;20498;-47
2023/01/23 07:45:08;;;;;;;25.45;13.35;;;;;;;;;;5074299;28;20554;-46
2023/01/23 07:47:34;;;;;;;25.02;12.35;;;;;;;;;;5075830;28;20202;-46
2023/01/23 07:50:00;;;;;;;26.15;12.55;;;;;;;;;;5077320;28;20202;-46
2023/01/23 07:52:26;;;;;;;27.33;13.43;;;;;;;;;;5076829;28;20173;-46
2023/01/23 07:54:52;;;;;;;24.97;12.67;;;;;;;;;;5075641;28;20404;-48
2023/01/23 07:57:18;;;;;;;24.33;12.20;;;;;;;;;;5071412;28;20743;-46
2023/01/23 07:59:44;;;;;;;23.70;11.50;;;;;;;;;;5073675;28;20201;-44
2023/01/23 08:02:10;;;;;;;22.53;12.50;;;;;;;;;;5075536;28;20955;-47
2023/01/23 08:04:36;;;;;;;27.45;12.27;;;;;;;;;;5077469;28;20408;-47
2023/01/23 08:07:02;;;;;;;24.35;13.48;;;;;;;;;;5078866;28;20585;-47
2023/01/23 08:09:28;;;;;;;23.05;12.82;;;;;;;;;;5068737;28;20202;-46
2023/01/23 08:11:54;;;;;;;22.03;12.27;;;;;;;;;;5077883;28;20174;-47
2023/01/23 08:14:20;;;;;;;26.50;12.70;;;;;;;;;;5072862;28;20426;-47
2023/01/23 08:16:49;;;;;;;18.70;11.83;;;;;;;;;;5074206;28;20969;-46
2023/01/23 08:19:15;;;;;;;23.55;12.80;;;;;;;;;;5070921;28;20432;-47
2023/01/23 08:21:41;;;;;;;24.70;13.98;;;;;;;;;;5071234;28;20252;-46
2023/01/23 08:24:08;;;;;;;20.65;11.32;;;;;;;;;;5071148;28;20208;-47
2023/01/23 08:26:33;;;;;;;26.40;12.93;;;;;;;;;;5074364;28;20178;-47
2023/01/23 08:28:59;;;;;;;21.20;12.70;;;;;;;;;;5070713;28;20194;-47
2023/01/23 08:31:25;;;;;;;23.10;11.50;;;;;;;;;;5075202;28;20511;-46
2023/01/23 08:33:51;;;;;;;24.40;13.70;;;;;;;;;;5074357;28;20405;-47
2023/01/23 08:36:17;;;;;;;22.10;13.03;;;;;;;;;;5078448;28;20801;-47
2023/01/23 08:38:43;;;;;;;23.97;11.70;;;;;;;;;;5070946;28;20420;-46
2023/01/23 08:41:10;;;;;;;15.73;9.40;;;;;;;;;;5074055;28;20416;-46
2023/01/23 08:43:37;;;;;;;22.92;12.20;;;;;;;;;;5076226;28;20194;-48
2023/01/23 08:46:03;;;;;;;19.98;12.00;;;;;;;;;;5077261;28;20523;-48
2023/01/23 08:48:29;;;;;;;28.00;11.77;;;;;;;;;;5076751;28;20178;-47
2023/01/23 08:50:59;;;;;;;22.92;12.20;;;;;;;;;;5072864;28;20432;-47
2023/01/23 08:53:25;;;;;;;22.40;12.00;;;;;;;;;;5071278;28;20166;-48
2023/01/23 08:55:51;;;;;;;19.67;11.50;;;;;;;;;;5073394;28;20528;-49
2023/01/23 08:58:17;;;;;;;22.30;11.47;;;;;;;;;;5074281;28;20189;-47
2023/01/23 09:00:43;;;;;;;23.77;11.80;;;;;;;;;;5075046;28;20470;-46
2023/01/23 09:03:09;;;;;;;21.70;11.50;;;;;;;;;;5068818;28;20809;-46
2023/01/23 09:05:35;;;;;;;24.07;11.30;;;;;;;;;;5070986;28;20894;-46
2023/01/23 09:08:01;;;;;;;21.60;11.60;;;;;;;;;;5074071;28;20480;-46
2023/01/23 09:10:27;;;;;;;23.23;12.33;;;;;;;;;;5075956;28;20761;-46
2023/01/23 09:12:53;;;;;;;20.27;11.07;;;;;;;;;;5076426;28;20405;-46
2023/01/23 09:15:21;;;;;;;19.58;10.45;;;;;;;;;;5080102;28;20418;-46
2023/01/23 09:17:47;;;;;;;20.20;11.23;;;;;;;;;;5074320;28;20542;-46
2023/01/23 09:20:14;;;;;;;21.92;11.45;;;;;;;;;;5074038;28;20709;-47
2023/01/23 09:22:40;;;;;;;17.30;9.93;;;;;;;;;;5076691;28;20227;-45
2023/01/23 09:25:06;;;;;;;19.50;10.73;;;;;;;;;;5078308;28;20166;-47
2023/01/23 09:27:32;;;;;;;18.05;10.90;;;;;;;;;;5077667;28;20476;-46
2023/01/23 09:29:58;;;;;;;17.07;10.53;;;;;;;;;;5076407;28;20658;-47
2023/01/23 09:32:24;;;;;;;19.53;11.37;;;;;;;;;;5076223;28;20404;-46
2023/01/23 09:34:50;;;;;;;19.03;11.67;;;;;;;;;;5073872;28;20488;-48
2023/01/23 09:37:16;;;;;;;17.83;10.60;;;;;;;;;;5076075;28;20416;-47
2023/01/23 09:39:43;;;;;;;19.52;11.15;;;;;;;;;;5077986;28;20437;-48
2023/01/23 09:42:14;;;;;;;13.13;8.98;;;;;;;;;;5079360;28;20202;-48
2023/01/23 09:44:41;;;;;;;19.40;9.68;;;;;;;;;;5080684;28;20169;-47
2023/01/23 09:47:22;;;;;;;18.73;9.68;;;;;;;;;;5074438;28;20669;-45
2023/01/23 09:49:57;;;;;;;19.42;10.75;;;;;;;;;;5075883;28;20197;-45
2023/01/23 09:52:25;;;;;;;16.77;10.48;;;;;;;;;;5073662;28;20626;-48
2023/01/23 09:55:01;;;;;;;17.52;10.05;;;;;;;;;;5080823;28;20174;-48
2023/01/23 09:57:40;;;;;;;18.92;9.75;;;;;;;;;;5076362;28;20178;-46
2023/01/23 10:00:15;;;;;;;16.25;10.10;;;;;;;;;;5080670;28;20544;-48
2023/01/23 10:02:44;;;;;;;18.58;9.73;;;;;;;;;;5073229;28;20661;-45
2023/01/23 10:05:17;;;;;;;17.05;10.02;;;;;;;;;;5070072;28;20178;-48
2023/01/23 10:08:02;;;;;;;16.25;9.93;;;;;;;;;;5076488;28;20174;-43
2023/01/23 10:10:33;;;;;;;17.60;10.38;;;;;;;;;;5093084;28;20707;-44
2023/01/23 10:13:01;;;;;;;13.35;9.18;;;;;;;;;;5082896;28;20192;-47
2023/01/23 10:15:27;;;;;;;13.02;7.93;;;;;;;;;;5086777;28;20642;-43
2023/01/23 10:17:59;;;;;;;16.33;10.70;;;;;;;;;;5075513;28;20188;-43
2023/01/23 10:20:32;;;;;;;13.57;8.27;;;;;;;;;;5093129;28;20439;-44
2023/01/23 10:23:11;;;;;;;16.13;9.35;;;;;;;;;;5073482;28;20198;-45
2023/01/23 10:25:39;;;;;;;20.35;10.20;;;;;;;;;;5053123;28;20213;-45
2023/01/23 10:28:24;;;;;;;16.73;10.15;;;;;;;;;;5072798;28;20170;-44
2023/01/23 10:30:53;;;;;;;18.50;9.60;;;;;;;;;;5072802;28;20573;-43
2023/01/23 10:33:19;;;;;;;18.02;10.70;;;;;;;;;;5072140;28;20186;-43
2023/01/23 10:36:01;;;;;;;12.90;8.13;;;;;;;;;;5072286;28;20190;-44
2023/01/23 10:38:32;;;;;;;12.63;7.65;;;;;;;;;;5072077;28;20415;-43
2023/01/23 10:41:14;;;;;;;11.63;7.82;;;;;;;;;;5072169;28;20178;-44
2023/01/23 10:43:41;;;;;;;13.77;8.32;;;;;;;;;;5072553;28;20178;-44
2023/01/23 10:46:30;;;;;;;12.18;8.02;;;;;;;;;;5072373;28;20214;-44
2023/01/23 10:48:56;;;;;;;14.75;8.68;;;;;;;;;;5064030;28;20546;-43
2023/01/23 10:51:28;;;;;;;12.73;8.50;;;;;;;;;;5071982;28;20185;-43
2023/01/23 10:54:01;;;;;;;11.65;8.45;;;;;;;;;;5072167;28;20185;-43
2023/01/23 10:56:27;;;;;;;12.68;8.57;;;;;;;;;;5082965;28;20170;-43
2023/01/23 10:58:58;;;;;;;14.70;9.45;;;;;;;;;;5090344;28;20201;-46
2023/01/23 11:01:29;;;;;;;11.85;8.38;;;;;;;;;;5087323;28;20220;-43
2023/01/23 11:03:55;;;;;;;14.60;9.13;;;;;;;;;;5085935;28;20181;-43
2023/01/23 11:06:24;;;;;;;12.93;8.85;;;;;;;;;;5088308;28;20180;-44
2023/01/23 11:08:54;;;;;;;13.48;9.60;;;;;;;;;;5078547;28;20207;-43
2023/01/23 11:11:22;;;;;;;15.48;9.07;;;;;;;;;;5088657;28;20668;-45
2023/01/23 11:13:49;;;;;;;14.05;9.35;;;;;;;;;;5070928;28;20166;-43
2023/01/23 11:16:17;;;;;;;14.00;9.63;;;;;;;;;;5070971;28;20162;-43
2023/01/23 11:18:48;;;;;;;12.98;9.18;;;;;;;;;;5091977;28;20170;-44
2023/01/23 11:21:28;;;;;;;19.95;10.68;;;;;;;;;;5090154;28;20185;-43
2023/01/23 11:24:12;;;;;;;13.52;9.00;;;;;;;;;;5088779;28;20184;-43
2023/01/23 11:26:38;;;;;;;14.15;9.10;;;;;;;;;;5086867;28;20176;-42
2023/01/23 11:29:18;;;;;;;19.65;9.88;;;;;;;;;;5084517;28;20643;-43
2023/01/23 11:31:44;;;;;;;14.50;9.82;;;;;;;;;;5086235;28;20174;-44
2023/01/23 11:34:15;;;;;;;19.13;11.57;;;;;;;;;;5080749;28;20185;-43
2023/01/23 11:36:50;;;;;;;11.77;8.25;;;;;;;;;;5086575;28;20189;-43
2023/01/23 11:39:22;;;;;;;17.70;10.68;;;;;;;;;;5076205;28;20207;-47
2023/01/23 11:41:48;;;;;;;15.20;9.25;;;;;;;;;;5088808;28;20202;-46
2023/01/23 11:44:21;;;;;;;17.30;11.73;;;;;;;;;;5092036;28;20161;-43
2023/01/23 11:47:06;;;;;;;17.77;10.18;;;;;;;;;;5086301;28;20202;-44
2023/01/23 11:49:32;;;;;;;17.65;9.98;;;;;;;;;;5091616;28;20558;-44
2023/01/23 11:52:04;;;;;;;18.85;10.75;;;;;;;;;;5085211;28;20228;-43
2023/01/23 11:54:49;;;;;;;18.25;10.10;;;;;;;;;;5071636;28;20200;-43
2023/01/23 11:57:15;;;;;;;16.08;10.50;;;;;;;;;;5067410;28;20692;-43
2023/01/23 11:59:41;;;;;;;20.37;11.90;;;;;;;;;;5074220;28;20229;-47
2023/01/23 12:02:23;;;;;;;20.47;10.73;;;;;;;;;;5072642;28;20492;-46
2023/01/23 12:05:23;;;;;;;17.85;12.05;;;;;;;;;;5070272;28;20420;-48
2023/01/23 12:08:27;;;;;;;21.05;11.20;;;;;;;;;;5050633;28;20274;-46
2023/01/23 12:11:16;;;;;;;16.42;10.18;;;;;;;;;;5030992;28;20199;-45
2023/01/23 12:13:42;;;;;;;18.45;11.40;;;;;;;;;;5021505;28;20199;-45
2023/01/23 12:16:20;;;;;;;14.00;9.10;;;;;;;;;;5055150;28;20190;-45
2023/01/23 12:18:52;;;;;;;23.00;11.75;;;;;;;;;;5069808;28;20427;-45
2023/01/23 12:21:19;;;;;;;20.23;11.13;;;;;;;;;;5069029;28;20181;-45
2023/01/23 12:23:45;;;;;;;29.77;11.15;;;;;;;;;;5070821;28;20532;-45
2023/01/23 12:26:14;;;;;;;15.23;9.57;;;;;;;;;;5068882;28;20178;-45
2023/01/23 12:28:59;;;;;;;16.20;10.30;;;;;;;;;;5070852;28;20432;-45
2023/01/23 12:31:46;;;;;;;19.67;10.82;;;;;;;;;;5070070;28;20178;-45
2023/01/23 12:34:31;;;;;;;17.20;10.90;;;;;;;;;;5065931;28;20668;-45
2023/01/23 12:37:00;;;;;;;17.60;10.73;;;;;;;;;;5069263;28;20217;-45
2023/01/23 12:39:32;;;;;;;16.75;10.90;;;;;;;;;;5072536;28;20186;-45
2023/01/23 12:42:02;;;;;;;21.52;11.75;;;;;;;;;;5078116;28;20201;-45
2023/01/23 12:44:41;;;;;;;18.25;10.65;;;;;;;;;;5074904;28;20231;-45
2023/01/23 12:47:15;;;;;;;16.08;10.15;;;;;;;;;;5078632;28;20170;-46
2023/01/23 12:49:44;;;;;;;15.63;11.05;;;;;;;;;;5073156;28;20198;-45
2023/01/23 12:52:28;;;;;;;15.07;10.25;;;;;;;;;;5065833;28;20319;-45
2023/01/23 12:54:59;;;;;;;19.83;11.15;;;;;;;;;;5076459;28;20231;-45
2023/01/23 12:57:43;;;;;;;20.75;12.48;;;;;;;;;;5075900;28;20169;-45
2023/01/23 13:00:09;;;;;;;18.92;12.10;;;;;;;;;;5074989;28;20276;-45
2023/01/23 13:02:50;;;;;;;20.75;11.15;;;;;;;;;;5079253;28;20220;-45
2023/01/23 13:05:23;;;;;;;17.35;10.70;;;;;;;;;;5067469;28;20568;-45
2023/01/23 13:07:54;;;;;;;17.10;8.75;;;;;;;;;;5074582;28;20178;-45
2023/01/23 13:13:26;;;;;;;17.30;10.60;;;;;;;;;;5078489;28;20266;-45
2023/01/23 13:16:03;;;;;;;14.50;9.00;;;;;;;;;;5074245;28;20224;-45
2023/01/23 13:21:59;;;;;;;16.98;10.55;;;;;;;;;;5074088;28;20188;-46
2023/01/23 13:25:08;;;;;;;14.40;9.63;;;;;;;;;;5077277;28;20273;-45
2023/01/23 13:27:24;;;;;;;17.17;10.50;;;;;;;;;;5078471;28;20197;-45
2023/01/23 13:29:50;;;;;;;20.13;11.20;;;;;;;;;;5080111;28;20201;-45
2023/01/23 13:32:27;;;;;;;18.08;10.82;;;;;;;;;;5074457;28;20178;-45
2023/01/23 13:34:53;;;;;;;16.98;12.25;;;;;;;;;;5075144;28;20210;-45
2023/01/23 13:37:25;;;;;;;21.63;11.97;;;;;;;;;;5076641;28;20210;-45
2023/01/23 13:40:02;;;;;;;17.50;11.25;;;;;;;;;;5073609;28;20535;-45
2023/01/23 13:42:28;;;;;;;17.35;10.05;;;;;;;;;;5078034;28;20201;-45
2023/01/23 13:45:14;;;;;;;19.43;12.20;;;;;;;;;;5077071;28;20170;-45
2023/01/23 13:50:36;;;;;;;18.02;11.43;;;;;;;;;;5071191;28;20296;-45
2023/01/23 13:58:43;;;;;;;15.90;10.23;;;;;;;;;;5066479;28;20224;-45
2023/01/23 14:06:47;;;;;;;14.85;10.60;;;;;;;;;;5093410;28;20187;-45
2023/01/23 14:09:23;;;;;;;17.90;10.33;;;;;;;;;;5092774;28;20276;-45
2023/01/23 14:12:01;;;;;;;18.73;10.68;;;;;;;;;;5093540;28;20415;-45
2023/01/23 14:17:17;;;;;;;16.58;10.75;;;;;;;;;;5092398;28;20196;-45
2023/01/23 14:19:52;;;;;;;20.45;11.20;;;;;;;;;;5084268;28;20259;-45
2023/01/23 14:22:18;;;;;;;15.90;10.30;;;;;;;;;;5092392;28;20297;-45
2023/01/23 14:24:46;;;;;;;15.37;11.33;;;;;;;;;;5078570;28;20252;-45
2023/01/23 14:27:35;;;;;;;15.63;10.02;;;;;;;;;;5089683;28;20436;-45
2023/01/23 14:30:23;;;;;;;15.00;9.50;;;;;;;;;;5054450;28;20287;-45
2023/01/23 14:32:49;;;;;;;14.07;8.82;;;;;;;;;;5092158;28;20178;-45
2023/01/23 14:35:22;;;;;;;13.07;8.57;;;;;;;;;;5093155;28;20172;-45
2023/01/23 14:37:48;;;;;;;13.63;7.80;;;;;;;;;;5088039;28;20413;-45
2023/01/23 14:40:19;;;;;;;11.18;8.20;;;;;;;;;;5072641;28;20209;-45
2023/01/23 14:42:45;;;;;;;14.60;8.90;;;;;;;;;;5072273;28;20197;-45
2023/01/23 14:45:12;;;;;;;13.93;8.63;;;;;;;;;;5072137;28;20205;-45
2023/01/23 14:47:43;;;;;;;13.70;9.50;;;;;;;;;;5071617;28;20220;-45
2023/01/23 14:50:11;;;;;;;14.95;8.80;;;;;;;;;;5071798;28;20244;-45
2023/01/23 14:52:37;;;;;;;17.13;9.32;;;;;;;;;;5071672;28;20178;-45
2023/01/23 14:55:03;;;;;;;11.37;8.17;;;;;;;;;;5076613;28;20170;-45
2023/01/23 14:57:29;;;;;;;14.07;9.38;;;;;;;;;;5091543;28;20444;-45